sensor_id;sensor_type;location;lat;lon;timestamp;pressure;altitude;pressure_sealevel;temperature;humidity
70323;BME280;57735;56.264;43.898;2023-11-21T00:01:16;99930.91;;;-5.51;77.37
70323;BME280;57735;56.264;43.898;2023-11-21T00:03:47;99934.16;;;-5.46;77.79
70323;BME280;57735;56.264;43.898;2023-11-21T00:06:19;99925.47;;;-5.45;77.52
70323;BME280;57735;56.264;43.898;2023-11-21T00:08:53;99933.00;;;-5.39;77.77
70323;BME280;57735;56.264;43.898;2023-11-21T00:11:24;99928.59;;;-5.37;77.22
70323;BME280;57735;56.264;43.898;2023-11-21T00:13:58;99923.59;;;-5.41;76.78
70323;BME280;57735;56.264;43.898;2023-11-21T00:16:29;99922.69;;;-5.40;77.09
70323;BME280;57735;56.264;43.898;2023-11-21T00:19:00;99923.66;;;-5.43;77.05
70323;BME280;57735;56.264;43.898;2023-11-21T00:21:33;99920.38;;;-5.48;77.23
70323;BME280;57735;56.264;43.898;2023-11-21T00:24:04;99921.19;;;-5.46;77.12
70323;BME280;57735;56.264;43.898;2023-11-21T00:26:35;99914.47;;;-5.51;76.90
70323;BME280;57735;56.264;43.898;2023-11-21T00:29:08;99907.47;;;-5.49;77.18
70323;BME280;57735;56.264;43.898;2023-11-21T00:31:39;99904.81;;;-5.48;77.37
70323;BME280;57735;56.264;43.898;2023-11-21T00:34:11;99906.69;;;-5.51;77.43
70323;BME280;57735;56.264;43.898;2023-11-21T00:36:42;99904.31;;;-5.56;77.46
70323;BME280;57735;56.264;43.898;2023-11-21T00:39:13;99892.16;;;-5.55;77.77
70323;BME280;57735;56.264;43.898;2023-11-21T00:41:44;99900.53;;;-5.49;77.53
70323;BME280;57735;56.264;43.898;2023-11-21T00:44:15;99894.31;;;-5.45;77.18
70323;BME280;57735;56.264;43.898;2023-11-21T00:46:46;99888.91;;;-5.40;77.21
70323;BME280;57735;56.264;43.898;2023-11-21T00:49:20;99882.81;;;-5.39;76.87
70323;BME280;57735;56.264;43.898;2023-11-21T00:51:51;99872.44;;;-5.39;76.77
70323;BME280;57735;56.264;43.898;2023-11-21T00:54:22;99874.25;;;-5.41;76.58
70323;BME280;57735;56.264;43.898;2023-11-21T00:56:56;99882.88;;;-5.41;76.77
70323;BME280;57735;56.264;43.898;2023-11-21T00:59:27;99879.16;;;-5.35;76.91
70323;BME280;57735;56.264;43.898;2023-11-21T01:01:58;99884.16;;;-5.31;76.52
70323;BME280;57735;56.264;43.898;2023-11-21T01:04:31;99882.41;;;-5.30;76.47
70323;BME280;57735;56.264;43.898;2023-11-21T01:07:03;99878.97;;;-5.31;76.50
70323;BME280;57735;56.264;43.898;2023-11-21T01:09:38;99872.22;;;-5.35;76.21
70323;BME280;57735;56.264;43.898;2023-11-21T01:12:09;99871.47;;;-5.37;76.33
70323;BME280;57735;56.264;43.898;2023-11-21T01:14:40;99873.91;;;-5.34;76.47
70323;BME280;57735;56.264;43.898;2023-11-21T01:17:11;99869.47;;;-5.32;76.52
70323;BME280;57735;56.264;43.898;2023-11-21T01:19:45;99879.16;;;-5.35;75.87
70323;BME280;57735;56.264;43.898;2023-11-21T01:22:16;99864.41;;;-5.35;75.69
70323;BME280;57735;56.264;43.898;2023-11-21T01:24:47;99869.56;;;-5.33;76.11
70323;BME280;57735;56.264;43.898;2023-11-21T01:27:18;99873.00;;;-5.33;75.78
70323;BME280;57735;56.264;43.898;2023-11-21T01:29:49;99873.06;;;-5.34;76.18
70323;BME280;57735;56.264;43.898;2023-11-21T01:32:22;99874.56;;;-5.29;76.10
70323;BME280;57735;56.264;43.898;2023-11-21T01:34:52;99876.91;;;-5.22;75.99
70323;BME280;57735;56.264;43.898;2023-11-21T01:37:26;99876.97;;;-5.24;75.43
70323;BME280;57735;56.264;43.898;2023-11-21T01:39:59;99873.59;;;-5.26;75.51
70323;BME280;57735;56.264;43.898;2023-11-21T01:42:32;99875.34;;;-5.27;75.37
70323;BME280;57735;56.264;43.898;2023-11-21T01:45:04;99865.84;;;-5.28;75.46
70323;BME280;57735;56.264;43.898;2023-11-21T01:47:36;99867.59;;;-5.28;75.42
70323;BME280;57735;56.264;43.898;2023-11-21T01:50:16;99877.22;;;-5.30;75.15
70323;BME280;57735;56.264;43.898;2023-11-21T01:52:48;99865.00;;;-5.28;75.48
70323;BME280;57735;56.264;43.898;2023-11-21T01:55:19;99869.28;;;-5.27;75.45
70323;BME280;57735;56.264;43.898;2023-11-21T01:57:50;99857.16;;;-5.27;75.79
70323;BME280;57735;56.264;43.898;2023-11-21T02:00:21;99857.81;;;-5.21;75.95
70323;BME280;57735;56.264;43.898;2023-11-21T02:02:54;99861.03;;;-5.16;75.56
70323;BME280;57735;56.264;43.898;2023-11-21T02:05:25;99862.84;;;-5.18;75.60
70323;BME280;57735;56.264;43.898;2023-11-21T02:07:56;99873.22;;;-5.18;75.52
70323;BME280;57735;56.264;43.898;2023-11-21T02:10:27;99857.81;;;-5.21;75.68
70323;BME280;57735;56.264;43.898;2023-11-21T02:12:58;99854.44;;;-5.23;75.85
70323;BME280;57735;56.264;43.898;2023-11-21T02:15:33;99871.63;;;-5.21;76.11
70323;BME280;57735;56.264;43.898;2023-11-21T02:18:07;99867.97;;;-5.17;76.02
70323;BME280;57735;56.264;43.898;2023-11-21T02:20:40;99875.75;;;-5.17;76.01
70323;BME280;57735;56.264;43.898;2023-11-21T02:23:13;99877.25;;;-5.11;76.48
70323;BME280;57735;56.264;43.898;2023-11-21T02:25:45;99879.53;;;-5.04;76.44
70323;BME280;57735;56.264;43.898;2023-11-21T02:28:18;99878.38;;;-4.98;76.31
70323;BME280;57735;56.264;43.898;2023-11-21T02:30:56;99872.22;;;-4.96;75.97
70323;BME280;57735;56.264;43.898;2023-11-21T02:33:28;99873.25;;;-5.00;76.16
70323;BME280;57735;56.264;43.898;2023-11-21T02:36:02;99886.47;;;-5.04;76.47
70323;BME280;57735;56.264;43.898;2023-11-21T02:38:33;99875.31;;;-5.06;76.81
70323;BME280;57735;56.264;43.898;2023-11-21T02:41:06;99881.53;;;-5.10;76.68
70323;BME280;57735;56.264;43.898;2023-11-21T02:43:40;99871.47;;;-5.18;76.43
70323;BME280;57735;56.264;43.898;2023-11-21T02:46:10;99872.72;;;-5.27;77.10
70323;BME280;57735;56.264;43.898;2023-11-21T02:48:41;99867.66;;;-5.30;77.25
70323;BME280;57735;56.264;43.898;2023-11-21T02:51:12;99875.53;;;-5.31;77.09
70323;BME280;57735;56.264;43.898;2023-11-21T02:53:43;99867.94;;;-5.36;77.34
70323;BME280;57735;56.264;43.898;2023-11-21T02:56:14;99874.97;;;-5.38;77.81
70323;BME280;57735;56.264;43.898;2023-11-21T02:58:45;99880.16;;;-5.38;77.91
70323;BME280;57735;56.264;43.898;2023-11-21T03:01:16;99870.81;;;-5.42;78.06
70323;BME280;57735;56.264;43.898;2023-11-21T03:03:47;99871.78;;;-5.44;78.29
70323;BME280;57735;56.264;43.898;2023-11-21T03:06:21;99872.63;;;-5.44;78.61
70323;BME280;57735;56.264;43.898;2023-11-21T03:08:52;99870.03;;;-5.44;78.98
70323;BME280;57735;56.264;43.898;2023-11-21T03:11:26;99870.16;;;-5.47;78.96
70323;BME280;57735;56.264;43.898;2023-11-21T03:13:57;99862.50;;;-5.50;79.42
70323;BME280;57735;56.264;43.898;2023-11-21T03:16:28;99858.19;;;-5.51;80.00
70323;BME280;57735;56.264;43.898;2023-11-21T03:18:59;99863.69;;;-5.57;80.03
70323;BME280;57735;56.264;43.898;2023-11-21T03:21:30;99856.72;;;-5.56;80.73
70323;BME280;57735;56.264;43.898;2023-11-21T03:24:01;99866.28;;;-5.57;80.37
70323;BME280;57735;56.264;43.898;2023-11-21T03:26:32;99865.50;;;-5.59;80.42
70323;BME280;57735;56.264;43.898;2023-11-21T03:29:03;99860.34;;;-5.60;80.55
70323;BME280;57735;56.264;43.898;2023-11-21T03:31:35;99861.34;;;-5.63;80.46
70323;BME280;57735;56.264;43.898;2023-11-21T03:34:10;99856.25;;;-5.66;80.60
70323;BME280;57735;56.264;43.898;2023-11-21T03:36:41;99853.78;;;-5.69;80.52
70323;BME280;57735;56.264;43.898;2023-11-21T03:39:12;99856.97;;;-5.63;81.46
70323;BME280;57735;56.264;43.898;2023-11-21T03:41:43;99855.88;;;-5.57;81.32
70323;BME280;57735;56.264;43.898;2023-11-21T03:44:14;99858.47;;;-5.57;81.02
70323;BME280;57735;56.264;43.898;2023-11-21T03:46:45;99851.78;;;-5.63;81.04
70323;BME280;57735;56.264;43.898;2023-11-21T03:49:18;99850.09;;;-5.64;81.38
70323;BME280;57735;56.264;43.898;2023-11-21T03:51:49;99866.47;;;-5.62;81.17
70323;BME280;57735;56.264;43.898;2023-11-21T03:54:22;99867.44;;;-5.64;81.16
70323;BME280;57735;56.264;43.898;2023-11-21T03:56:53;99866.72;;;-5.68;81.04
70323;BME280;57735;56.264;43.898;2023-11-21T03:59:24;99866.13;;;-5.74;81.03
70323;BME280;57735;56.264;43.898;2023-11-21T04:01:57;99864.31;;;-5.72;81.48
70323;BME280;57735;56.264;43.898;2023-11-21T04:04:28;99868.72;;;-5.74;81.69
70323;BME280;57735;56.264;43.898;2023-11-21T04:06:59;99870.38;;;-5.72;81.50
70323;BME280;57735;56.264;43.898;2023-11-21T04:09:30;99870.31;;;-5.70;81.40
70323;BME280;57735;56.264;43.898;2023-11-21T04:12:01;99880.59;;;-5.69;81.53
70323;BME280;57735;56.264;43.898;2023-11-21T04:14:31;99882.16;;;-5.65;82.03
70323;BME280;57735;56.264;43.898;2023-11-21T04:17:02;99883.78;;;-5.62;81.19
70323;BME280;57735;56.264;43.898;2023-11-21T04:19:34;99884.81;;;-5.66;81.20
70323;BME280;57735;56.264;43.898;2023-11-21T04:22:05;99883.91;;;-5.65;81.51
70323;BME280;57735;56.264;43.898;2023-11-21T04:24:36;99893.31;;;-5.63;81.55
70323;BME280;57735;56.264;43.898;2023-11-21T04:27:07;99892.59;;;-5.66;81.37
70323;BME280;57735;56.264;43.898;2023-11-21T04:29:38;99890.91;;;-5.67;81.65
70323;BME280;57735;56.264;43.898;2023-11-21T04:32:09;99889.38;;;-5.71;81.79
70323;BME280;57735;56.264;43.898;2023-11-21T04:34:40;99883.13;;;-5.67;81.73
70323;BME280;57735;56.264;43.898;2023-11-21T04:37:11;99877.03;;;-5.66;81.88
70323;BME280;57735;56.264;43.898;2023-11-21T04:39:42;99886.44;;;-5.64;81.92
70323;BME280;57735;56.264;43.898;2023-11-21T04:42:13;99886.13;;;-5.56;82.38
70323;BME280;57735;56.264;43.898;2023-11-21T04:44:44;99876.25;;;-5.48;82.32
70323;BME280;57735;56.264;43.898;2023-11-21T04:47:17;99872.56;;;-5.42;81.67
70323;BME280;57735;56.264;43.898;2023-11-21T04:49:49;99880.47;;;-5.45;81.40
70323;BME280;57735;56.264;43.898;2023-11-21T04:52:22;99879.81;;;-5.50;81.27
70323;BME280;57735;56.264;43.898;2023-11-21T04:54:53;99887.66;;;-5.52;81.52
70323;BME280;57735;56.264;43.898;2023-11-21T04:57:25;99867.91;;;-5.54;81.74
70323;BME280;57735;56.264;43.898;2023-11-21T04:59:58;99860.16;;;-5.56;81.52
70323;BME280;57735;56.264;43.898;2023-11-21T05:02:32;99855.03;;;-5.57;81.51
70323;BME280;57735;56.264;43.898;2023-11-21T05:05:05;99855.94;;;-5.58;81.91
70323;BME280;57735;56.264;43.898;2023-11-21T05:07:36;99868.22;;;-5.62;81.68
70323;BME280;57735;56.264;43.898;2023-11-21T05:10:08;99863.16;;;-5.65;82.06
70323;BME280;57735;56.264;43.898;2023-11-21T05:12:42;99864.91;;;-5.66;81.79
70323;BME280;57735;56.264;43.898;2023-11-21T05:15:15;99870.09;;;-5.66;82.17
70323;BME280;57735;56.264;43.898;2023-11-21T05:17:46;99858.66;;;-5.62;82.21
70323;BME280;57735;56.264;43.898;2023-11-21T05:20:20;99869.00;;;-5.60;82.03
70323;BME280;57735;56.264;43.898;2023-11-21T05:22:54;99877.50;;;-5.56;82.32
70323;BME280;57735;56.264;43.898;2023-11-21T05:25:25;99886.97;;;-5.55;81.89
70323;BME280;57735;56.264;43.898;2023-11-21T05:27:55;99888.56;;;-5.53;81.89
70323;BME280;57735;56.264;43.898;2023-11-21T05:30:26;99895.34;;;-5.49;81.72
70323;BME280;57735;56.264;43.898;2023-11-21T05:33:00;99896.91;;;-5.45;81.59
70323;BME280;57735;56.264;43.898;2023-11-21T05:35:34;99894.19;;;-5.42;81.55
70323;BME280;57735;56.264;43.898;2023-11-21T05:38:06;99888.00;;;-5.39;81.40
70323;BME280;57735;56.264;43.898;2023-11-21T05:40:37;99883.59;;;-5.37;81.23
70323;BME280;57735;56.264;43.898;2023-11-21T05:43:11;99882.41;;;-5.30;81.10
70323;BME280;57735;56.264;43.898;2023-11-21T05:45:42;99893.78;;;-5.33;80.73
70323;BME280;57735;56.264;43.898;2023-11-21T05:48:13;99890.38;;;-5.35;80.51
70323;BME280;57735;56.264;43.898;2023-11-21T05:50:46;99882.75;;;-5.38;80.68
70323;BME280;57735;56.264;43.898;2023-11-21T05:53:19;99883.38;;;-5.33;81.04
70323;BME280;57735;56.264;43.898;2023-11-21T05:55:50;99874.88;;;-5.36;80.23
70323;BME280;57735;56.264;43.898;2023-11-21T05:58:24;99874.13;;;-5.38;80.40
70323;BME280;57735;56.264;43.898;2023-11-21T06:00:54;99881.00;;;-5.37;80.50
70323;BME280;57735;56.264;43.898;2023-11-21T06:03:25;99883.44;;;-5.34;80.60
70323;BME280;57735;56.264;43.898;2023-11-21T06:05:56;99884.22;;;-5.32;80.22
70323;BME280;57735;56.264;43.898;2023-11-21T06:08:27;99890.25;;;-5.32;80.44
70323;BME280;57735;56.264;43.898;2023-11-21T06:10:58;99898.91;;;-5.31;80.07
70323;BME280;57735;56.264;43.898;2023-11-21T06:13:29;99903.19;;;-5.30;80.00
70323;BME280;57735;56.264;43.898;2023-11-21T06:16:01;99894.56;;;-5.31;79.95
70323;BME280;57735;56.264;43.898;2023-11-21T06:18:32;99904.94;;;-5.31;80.17
70323;BME280;57735;56.264;43.898;2023-11-21T06:21:02;99905.06;;;-5.34;80.05
70323;BME280;57735;56.264;43.898;2023-11-21T06:23:34;99899.09;;;-5.36;80.02
70323;BME280;57735;56.264;43.898;2023-11-21T06:26:05;99895.75;;;-5.38;79.83
70323;BME280;57735;56.264;43.898;2023-11-21T06:28:36;99883.66;;;-5.39;79.79
70323;BME280;57735;56.264;43.898;2023-11-21T06:31:07;99879.25;;;-5.37;79.89
70323;BME280;57735;56.264;43.898;2023-11-21T06:33:38;99880.00;;;-5.35;80.02
70323;BME280;57735;56.264;43.898;2023-11-21T06:36:09;99879.88;;;-5.32;79.84
70323;BME280;57735;56.264;43.898;2023-11-21T06:38:42;99876.56;;;-5.35;79.60
70323;BME280;57735;56.264;43.898;2023-11-21T06:41:15;99885.41;;;-5.39;79.84
70323;BME280;57735;56.264;43.898;2023-11-21T06:43:54;99883.78;;;-5.42;79.75
70323;BME280;57735;56.264;43.898;2023-11-21T06:46:25;99892.38;;;-5.40;79.55
70323;BME280;57735;56.264;43.898;2023-11-21T06:48:56;99897.28;;;-5.34;79.68
70323;BME280;57735;56.264;43.898;2023-11-21T06:51:27;99909.09;;;-5.27;79.74
70323;BME280;57735;56.264;43.898;2023-11-21T06:53:57;99915.06;;;-5.24;79.46
70323;BME280;57735;56.264;43.898;2023-11-21T06:56:29;99912.53;;;-5.26;79.33
70323;BME280;57735;56.264;43.898;2023-11-21T06:58:59;99914.09;;;-5.22;79.06
70323;BME280;57735;56.264;43.898;2023-11-21T07:01:30;99906.75;;;-5.12;79.01
70323;BME280;57735;56.264;43.898;2023-11-21T07:04:04;99905.56;;;-5.05;78.39
70323;BME280;57735;56.264;43.898;2023-11-21T07:06:37;99889.81;;;-5.02;77.91
70323;BME280;57735;56.264;43.898;2023-11-21T07:09:08;99889.50;;;-4.95;77.88
70323;BME280;57735;56.264;43.898;2023-11-21T07:11:39;99899.63;;;-4.88;77.59
70323;BME280;57735;56.264;43.898;2023-11-21T07:14:10;99896.88;;;-4.85;77.12
70323;BME280;57735;56.264;43.898;2023-11-21T07:16:42;99892.44;;;-4.83;76.65
70323;BME280;57735;56.264;43.898;2023-11-21T07:19:15;99899.00;;;-4.75;77.01
70323;BME280;57735;56.264;43.898;2023-11-21T07:21:49;99900.50;;;-4.69;76.73
70323;BME280;57735;56.264;43.898;2023-11-21T07:24:22;99905.53;;;-4.66;76.38
70323;BME280;57735;56.264;43.898;2023-11-21T07:26:53;99915.25;;;-4.70;76.13
70323;BME280;57735;56.264;43.898;2023-11-21T07:29:27;99917.19;;;-4.75;75.93
70323;BME280;57735;56.264;43.898;2023-11-21T07:31:59;99926.56;;;-4.71;76.33
70323;BME280;57735;56.264;43.898;2023-11-21T07:34:31;99928.31;;;-4.71;75.76
70323;BME280;57735;56.264;43.898;2023-11-21T07:37:02;99931.81;;;-4.72;75.83
70323;BME280;57735;56.264;43.898;2023-11-21T07:39:33;99937.94;;;-4.73;75.84
70323;BME280;57735;56.264;43.898;2023-11-21T07:42:04;99938.00;;;-4.75;75.55
70323;BME280;57735;56.264;43.898;2023-11-21T07:44:35;99935.53;;;-4.78;75.57
70323;BME280;57735;56.264;43.898;2023-11-21T07:47:06;99932.66;;;-4.72;75.83
70323;BME280;57735;56.264;43.898;2023-11-21T07:49:37;99934.19;;;-4.68;75.53
70323;BME280;57735;56.264;43.898;2023-11-21T07:52:10;99929.91;;;-4.69;75.77
70323;BME280;57735;56.264;43.898;2023-11-21T07:54:41;99927.25;;;-4.67;75.62
70323;BME280;57735;56.264;43.898;2023-11-21T07:57:12;99924.72;;;-4.69;75.53
70323;BME280;57735;56.264;43.898;2023-11-21T07:59:43;99919.38;;;-4.66;75.61
70323;BME280;57735;56.264;43.898;2023-11-21T08:02:15;99932.88;;;-4.58;75.77
70323;BME280;57735;56.264;43.898;2023-11-21T08:04:48;99926.63;;;-4.53;75.34
70323;BME280;57735;56.264;43.898;2023-11-21T08:07:21;99923.03;;;-4.51;75.26
70323;BME280;57735;56.264;43.898;2023-11-21T08:09:55;99931.69;;;-4.50;75.03
70323;BME280;57735;56.264;43.898;2023-11-21T08:12:27;99940.13;;;-4.45;75.04
70323;BME280;57735;56.264;43.898;2023-11-21T08:15:00;99921.63;;;-4.39;74.96
70323;BME280;57735;56.264;43.898;2023-11-21T08:17:34;99926.22;;;-4.44;74.94
70323;BME280;57735;56.264;43.898;2023-11-21T08:20:06;99940.13;;;-4.45;74.94
70323;BME280;57735;56.264;43.898;2023-11-21T08:22:39;99931.28;;;-4.41;74.88
70323;BME280;57735;56.264;43.898;2023-11-21T08:25:13;99927.97;;;-4.45;74.62
70323;BME280;57735;56.264;43.898;2023-11-21T08:27:44;99934.91;;;-4.45;74.50
70323;BME280;57735;56.264;43.898;2023-11-21T08:30:15;99932.25;;;-4.44;74.60
70323;BME280;57735;56.264;43.898;2023-11-21T08:32:48;99933.88;;;-4.41;74.69
70323;BME280;57735;56.264;43.898;2023-11-21T08:35:19;99930.97;;;-4.35;74.93
70323;BME280;57735;56.264;43.898;2023-11-21T08:37:52;99930.06;;;-4.34;74.47
70323;BME280;57735;56.264;43.898;2023-11-21T08:40:26;99937.19;;;-4.38;74.53
70323;BME280;57735;56.264;43.898;2023-11-21T08:42:57;99946.38;;;-4.31;74.69
70323;BME280;57735;56.264;43.898;2023-11-21T08:45:31;99935.97;;;-4.31;73.97
70323;BME280;57735;56.264;43.898;2023-11-21T08:48:08;99938.50;;;-4.29;74.49
70323;BME280;57735;56.264;43.898;2023-11-21T08:50:40;99931.47;;;-4.27;74.30
70323;BME280;57735;56.264;43.898;2023-11-21T08:53:11;99934.91;;;-4.27;73.99
70323;BME280;57735;56.264;43.898;2023-11-21T08:55:42;99935.97;;;-4.31;73.74
70323;BME280;57735;56.264;43.898;2023-11-21T08:58:14;99925.34;;;-4.26;73.93
70323;BME280;57735;56.264;43.898;2023-11-21T09:00:46;99931.53;;;-4.29;73.64
70323;BME280;57735;56.264;43.898;2023-11-21T09:03:17;99923.81;;;-4.30;73.51
70323;BME280;57735;56.264;43.898;2023-11-21T09:05:48;99927.25;;;-4.30;73.91
70323;BME280;57735;56.264;43.898;2023-11-21T09:08:19;99935.91;;;-4.29;73.81
70323;BME280;57735;56.264;43.898;2023-11-21T09:10:49;99936.69;;;-4.27;73.69
70323;BME280;57735;56.264;43.898;2023-11-21T09:13:20;99932.31;;;-4.27;73.55
70323;BME280;57735;56.264;43.898;2023-11-21T09:15:51;99933.94;;;-4.24;73.57
70323;BME280;57735;56.264;43.898;2023-11-21T09:18:22;99945.38;;;-4.28;73.14
70323;BME280;57735;56.264;43.898;2023-11-21T09:20:53;99942.94;;;-4.31;73.30
70323;BME280;57735;56.264;43.898;2023-11-21T09:23:24;99941.38;;;-4.35;73.29
70323;BME280;57735;56.264;43.898;2023-11-21T09:25:55;99941.53;;;-4.38;73.58
70323;BME280;57735;56.264;43.898;2023-11-21T09:28:31;99941.31;;;-4.34;74.16
70323;BME280;57735;56.264;43.898;2023-11-21T09:31:06;99944.63;;;-4.30;73.84
70323;BME280;57735;56.264;43.898;2023-11-21T09:33:42;99931.53;;;-4.29;73.74
70323;BME280;57735;56.264;43.898;2023-11-21T09:36:18;99941.03;;;-4.28;73.46
70323;BME280;57735;56.264;43.898;2023-11-21T09:38:52;99941.25;;;-4.32;73.63
70323;BME280;57735;56.264;43.898;2023-11-21T09:41:46;99935.25;;;-4.34;73.67
70323;BME280;57735;56.264;43.898;2023-11-21T09:47:04;99934.91;;;-4.45;73.95
70323;BME280;57735;56.264;43.898;2023-11-21T09:49:35;99933.38;;;-4.49;73.77
70323;BME280;57735;56.264;43.898;2023-11-21T09:52:08;99935.19;;;-4.51;73.89
70323;BME280;57735;56.264;43.898;2023-11-21T09:54:45;99926.63;;;-4.53;74.08
70323;BME280;57735;56.264;43.898;2023-11-21T09:57:19;99930.00;;;-4.51;73.69
70323;BME280;57735;56.264;43.898;2023-11-21T09:59:53;99924.78;;;-4.51;73.53
70323;BME280;57735;56.264;43.898;2023-11-21T10:02:29;99940.25;;;-4.48;73.54
70323;BME280;57735;56.264;43.898;2023-11-21T10:05:03;99937.19;;;-4.57;73.78
70323;BME280;57735;56.264;43.898;2023-11-21T10:07:36;99932.25;;;-4.63;73.76
70323;BME280;57735;56.264;43.898;2023-11-21T10:10:09;99931.59;;;-4.68;74.05
70323;BME280;57735;56.264;43.898;2023-11-21T10:12:43;99932.50;;;-4.69;74.45
70323;BME280;57735;56.264;43.898;2023-11-21T10:15:18;99932.66;;;-4.72;74.48
70323;BME280;57735;56.264;43.898;2023-11-21T10:17:49;99933.50;;;-4.71;74.42
70323;BME280;57735;56.264;43.898;2023-11-21T10:20:20;99935.88;;;-4.67;74.64
70323;BME280;57735;56.264;43.898;2023-11-21T10:22:53;99932.38;;;-4.66;74.80
70323;BME280;57735;56.264;43.898;2023-11-21T10:25:24;99944.34;;;-4.62;74.65
70323;BME280;57735;56.264;43.898;2023-11-21T10:28:01;99937.19;;;-4.57;74.66
70323;BME280;57735;56.264;43.898;2023-11-21T10:30:38;99935.97;;;-4.49;74.44
70323;BME280;57735;56.264;43.898;2023-11-21T10:33:11;99945.13;;;-4.41;74.12
70323;BME280;57735;56.264;43.898;2023-11-21T10:35:45;99935.50;;;-4.39;73.95
70323;BME280;57735;56.264;43.898;2023-11-21T10:38:24;99933.66;;;-4.37;74.13
70323;BME280;57735;56.264;43.898;2023-11-21T10:40:58;99950.25;;;-4.39;73.77
70323;BME280;57735;56.264;43.898;2023-11-21T10:43:30;99950.25;;;-4.39;73.90
70323;BME280;57735;56.264;43.898;2023-11-21T10:46:04;99947.41;;;-4.35;73.96
70323;BME280;57735;56.264;43.898;2023-11-21T10:48:36;99946.44;;;-4.32;74.14
70323;BME280;57735;56.264;43.898;2023-11-21T10:51:12;99943.97;;;-4.35;74.09
70323;BME280;57735;56.264;43.898;2023-11-21T10:53:43;99946.88;;;-4.41;73.96
70323;BME280;57735;56.264;43.898;2023-11-21T10:56:15;99947.94;;;-4.45;74.15
70323;BME280;57735;56.264;43.898;2023-11-21T10:58:49;99960.03;;;-4.44;74.62
70323;BME280;57735;56.264;43.898;2023-11-21T11:01:23;99954.81;;;-4.44;74.51
70323;BME280;57735;56.264;43.898;2023-11-21T11:03:56;99957.69;;;-4.50;74.17
70323;BME280;57735;56.264;43.898;2023-11-21T11:06:28;99961.34;;;-4.54;74.36
70323;BME280;57735;56.264;43.898;2023-11-21T11:09:00;99957.00;;;-4.54;74.48
70323;BME280;57735;56.264;43.898;2023-11-21T11:11:33;99957.91;;;-4.55;74.94
70323;BME280;57735;56.264;43.898;2023-11-21T11:14:03;99963.78;;;-4.51;74.85
70323;BME280;57735;56.264;43.898;2023-11-21T11:16:41;99958.75;;;-4.54;74.93
70323;BME280;57735;56.264;43.898;2023-11-21T11:19:17;99963.31;;;-4.60;75.21
70323;BME280;57735;56.264;43.898;2023-11-21T11:33:25;99980.44;;;-4.74;75.42
70323;BME280;57735;56.264;43.898;2023-11-21T11:38:59;99971.00;;;-4.77;76.22
70323;BME280;57735;56.264;43.898;2023-11-21T11:41:34;99971.94;;;-4.78;75.91
70323;BME280;57735;56.264;43.898;2023-11-21T11:47:29;99970.38;;;-4.82;76.56
70323;BME280;57735;56.264;43.898;2023-11-21T11:50:12;99968.47;;;-4.78;76.08
70323;BME280;57735;56.264;43.898;2023-11-21T11:53:12;99963.34;;;-4.80;75.97
70323;BME280;57735;56.264;43.898;2023-11-21T11:55:44;99950.63;;;-4.86;76.27
70323;BME280;57735;56.264;43.898;2023-11-21T11:58:16;99947.25;;;-4.88;76.37
70323;BME280;57735;56.264;43.898;2023-11-21T12:00:49;99952.59;;;-4.91;76.36
70323;BME280;57735;56.264;43.898;2023-11-21T12:03:23;99968.19;;;-4.91;76.51
70323;BME280;57735;56.264;43.898;2023-11-21T12:05:54;99958.69;;;-4.92;76.45
70323;BME280;57735;56.264;43.898;2023-11-21T12:08:29;99973.38;;;-4.91;76.39
70323;BME280;57735;56.264;43.898;2023-11-21T12:11:07;99974.41;;;-4.95;76.28
70323;BME280;57735;56.264;43.898;2023-11-21T12:13:38;99968.63;;;-5.02;76.05
70323;BME280;57735;56.264;43.898;2023-11-21T12:16:10;99967.03;;;-5.04;76.57
70323;BME280;57735;56.264;43.898;2023-11-21T12:18:41;99974.81;;;-5.04;76.17
70323;BME280;57735;56.264;43.898;2023-11-21T12:21:12;99974.03;;;-5.06;76.62
70323;BME280;57735;56.264;43.898;2023-11-21T12:23:45;99965.34;;;-5.05;76.78
70323;BME280;57735;56.264;43.898;2023-11-21T12:26:18;99961.84;;;-5.04;76.81
70323;BME280;57735;56.264;43.898;2023-11-21T12:28:54;99971.16;;;-5.00;76.74
70323;BME280;57735;56.264;43.898;2023-11-21T12:31:28;99963.53;;;-5.03;77.02
70323;BME280;57735;56.264;43.898;2023-11-21T12:34:00;99968.72;;;-5.03;77.25
70323;BME280;57735;56.264;43.898;2023-11-21T12:36:31;99966.88;;;-5.01;77.09
70323;BME280;57735;56.264;43.898;2023-11-21T12:39:02;99967.66;;;-4.99;76.82
70323;BME280;57735;56.264;43.898;2023-11-21T12:41:36;99968.00;;;-5.07;76.25
70323;BME280;57735;56.264;43.898;2023-11-21T12:44:11;99956.81;;;-5.09;77.03
70323;BME280;57735;56.264;43.898;2023-11-21T12:46:43;99962.09;;;-5.10;77.05
70323;BME280;57735;56.264;43.898;2023-11-21T12:49:15;99968.06;;;-5.08;77.24
70323;BME280;57735;56.264;43.898;2023-11-21T12:51:49;99963.72;;;-5.08;77.12
70323;BME280;57735;56.264;43.898;2023-11-21T12:54:20;99965.34;;;-5.05;77.30
70323;BME280;57735;56.264;43.898;2023-11-21T12:56:51;99971.22;;;-5.02;76.99
70323;BME280;57735;56.264;43.898;2023-11-21T12:59:22;99979.03;;;-5.02;76.87
70323;BME280;57735;56.264;43.898;2023-11-21T13:01:54;99974.75;;;-5.03;76.53
70323;BME280;57735;56.264;43.898;2023-11-21T13:04:31;99987.81;;;-5.04;76.64
70323;BME280;57735;56.264;43.898;2023-11-21T13:07:06;99978.41;;;-5.07;77.02
70323;BME280;57735;56.264;43.898;2023-11-21T13:09:46;99981.19;;;-5.11;76.62
70323;BME280;57735;56.264;43.898;2023-11-21T13:12:16;99992.16;;;-5.05;77.03
70323;BME280;57735;56.264;43.898;2023-11-21T13:14:49;99993.94;;;-5.05;76.59
70323;BME280;57735;56.264;43.898;2023-11-21T13:17:20;99998.47;;;-5.10;76.91
70323;BME280;57735;56.264;43.898;2023-11-21T13:19:54;99994.97;;;-5.09;77.21
70323;BME280;57735;56.264;43.898;2023-11-21T13:22:33;100000.75;;;-5.03;77.00
70323;BME280;57735;56.264;43.898;2023-11-21T13:25:04;100003.47;;;-5.06;76.85
70323;BME280;57735;56.264;43.898;2023-11-21T13:27:37;100003.41;;;-5.04;77.21
70323;BME280;57735;56.264;43.898;2023-11-21T13:30:09;100003.25;;;-5.01;76.97
70323;BME280;57735;56.264;43.898;2023-11-21T13:33:03;100014.72;;;-5.05;77.18
70323;BME280;57735;56.264;43.898;2023-11-21T13:35:39;100005.22;;;-5.06;77.27
70323;BME280;57735;56.264;43.898;2023-11-21T13:38:15;100004.38;;;-5.07;77.13